sensor_id;sensor_type;location;lat;lon;timestamp;pressure;altitude;pressure_sealevel;temperature;humidity
30343;BME280;17145;49.902;8.680;'2023-04-25 01:59:20';99420;;;9;57
30343;BME280;17145;49.902;8.680;'2023-04-25 02:01:47';99420;;;9;57
30343;BME280;17145;49.902;8.680;'2023-04-25 02:04:14';99420;;;8;57
30343;BME280;17145;49.902;8.680;'2023-04-25 02:06:42';99420;;;8;57
30343;BME280;17145;49.902;8.680;'2023-04-25 02:09:09';99420;;;8;57
30343;BME280;17145;49.902;8.680;'2023-04-25 02:11:37';99420;;;9;57
30343;BME280;17145;49.902;8.680;'2023-04-25 02:14:04';99420;;;9;57
30343;BME280;17145;49.902;8.680;'2023-04-25 02:16:32';99420;;;9;57
30343;BME280;17145;49.902;8.680;'2023-04-25 02:18:59';99420;;;9;57
30343;BME280;17145;49.902;8.680;'2023-04-25 02:21:27';99420;;;9;57
30343;BME280;17145;49.902;8.680;'2023-04-25 02:23:55';99430;;;8;57
30343;BME280;17145;49.902;8.680;'2023-04-25 02:26:22';99430;;;8;57
30343;BME280;17145;49.902;8.680;'2023-04-25 02:28:50';99430;;;8;58
30343;BME280;17145;49.902;8.680;'2023-04-25 02:31:17';99430;;;9;58
30343;BME280;17145;49.902;8.680;'2023-04-25 02:33:44';99430;;;9;57
30343;BME280;17145;49.902;8.680;'2023-04-25 02:36:12';99430;;;9;58
30343;BME280;17145;49.902;8.680;'2023-04-25 02:38:39';99430;;;9;57
30343;BME280;17145;49.902;8.680;'2023-04-25 02:41:07';99430;;;8;57
30343;BME280;17145;49.902;8.680;'2023-04-25 02:43:36';99420;;;9;57
30343;BME280;17145;49.902;8.680;'2023-04-25 02:46:04';99420;;;8;57
30343;BME280;17145;49.902;8.680;'2023-04-25 02:48:31';99420;;;9;57
30343;BME280;17145;49.902;8.680;'2023-04-25 02:50:59';99420;;;9;57
30343;BME280;17145;49.902;8.680;'2023-04-25 02:53:28';99420;;;8;56
30343;BME280;17145;49.902;8.680;'2023-04-25 02:55:56';99420;;;8;57
30343;BME280;17145;49.902;8.680;'2023-04-25 02:58:23';99420;;;8;57
30343;BME280;17145;49.902;8.680;'2023-04-25 03:00:52';99420;;;8;58
30343;BME280;17145;49.902;8.680;'2023-04-25 03:03:20';99420;;;9;57
30343;BME280;17145;49.902;8.680;'2023-04-25 03:05:47';99410;;;8;57
30343;BME280;17145;49.902;8.680;'2023-04-25 03:08:15';99410;;;8;57
30343;BME280;17145;49.902;8.680;'2023-04-25 03:10:42';99410;;;8;57
30343;BME280;17145;49.902;8.680;'2023-04-25 03:13:10';99410;;;8;57
30343;BME280;17145;49.902;8.680;'2023-04-25 03:15:37';99410;;;8;57
30343;BME280;17145;49.902;8.680;'2023-04-25 03:18:06';99420;;;8;58
30343;BME280;17145;49.902;8.680;'2023-04-25 03:20:34';99420;;;9;58
30343;BME280;17145;49.902;8.680;'2023-04-25 03:23:01';99410;;;8;58
30343;BME280;17145;49.902;8.680;'2023-04-25 03:25:29';99410;;;8;57
30343;BME280;17145;49.902;8.680;'2023-04-25 03:27:57';99410;;;8;58
30343;BME280;17145;49.902;8.680;'2023-04-25 03:30:26';99410;;;8;58
30343;BME280;17145;49.902;8.680;'2023-04-25 03:32:55';99410;;;8;58
30343;BME280;17145;49.902;8.680;'2023-04-25 03:35:23';99410;;;8;58
30343;BME280;17145;49.902;8.680;'2023-04-25 03:37:51';99420;;;8;58
30343;BME280;17145;49.902;8.680;'2023-04-25 03:40:21';99420;;;8;58
30343;BME280;17145;49.902;8.680;'2023-04-25 03:42:49';99420;;;8;58
30343;BME280;17145;49.902;8.680;'2023-04-25 03:45:17';99410;;;8;58
30343;BME280;17145;49.902;8.680;'2023-04-25 03:47:44';99410;;;8;58
30343;BME280;17145;49.902;8.680;'2023-04-25 03:50:12';99410;;;8;58
30343;BME280;17145;49.902;8.680;'2023-04-25 03:52:39';99420;;;8;58
30343;BME280;17145;49.902;8.680;'2023-04-25 03:55:07';99420;;;8;58
30343;BME280;17145;49.902;8.680;'2023-04-25 03:57:35';99420;;;9;59
30343;BME280;17145;49.902;8.680;'2023-04-25 04:00:05';99420;;;8;58
30343;BME280;17145;49.902;8.680;'2023-04-25 04:02:33';99420;;;9;58
30343;BME280;17145;49.902;8.680;'2023-04-25 04:05:00';99420;;;9;58
30343;BME280;17145;49.902;8.680;'2023-04-25 04:07:28';99420;;;8;57
30343;BME280;17145;49.902;8.680;'2023-04-25 04:09:55';99420;;;8;58
30343;BME280;17145;49.902;8.680;'2023-04-25 04:12:23';99420;;;8;58
30343;BME280;17145;49.902;8.680;'2023-04-25 04:14:50';99410;;;8;58
30343;BME280;17145;49.902;8.680;'2023-04-25 04:17:17';99410;;;8;58
30343;BME280;17145;49.902;8.680;'2023-04-25 04:19:45';99410;;;8;58
30343;BME280;17145;49.902;8.680;'2023-04-25 04:22:12';99400;;;9;58
30343;BME280;17145;49.902;8.680;'2023-04-25 04:24:40';99400;;;9;58
30343;BME280;17145;49.902;8.680;'2023-04-25 04:27:07';99410;;;8;58
30343;BME280;17145;49.902;8.680;'2023-04-25 04:29:35';99400;;;9;58
30343;BME280;17145;49.902;8.680;'2023-04-25 04:32:02';99400;;;8;58
30343;BME280;17145;49.902;8.680;'2023-04-25 04:34:30';99400;;;9;57
30343;BME280;17145;49.902;8.680;'2023-04-25 04:36:57';99400;;;8;58
30343;BME280;17145;49.902;8.680;'2023-04-25 04:39:24';99400;;;8;58
30343;BME280;17145;49.902;8.680;'2023-04-25 04:41:53';99390;;;9;58
30343;BME280;17145;49.902;8.680;'2023-04-25 04:44:20';99390;;;8;58
30343;BME280;17145;49.902;8.680;'2023-04-25 04:46:47';99390;;;8;57
30343;BME280;17145;49.902;8.680;'2023-04-25 04:49:15';99390;;;8;58
30343;BME280;17145;49.902;8.680;'2023-04-25 04:51:42';99390;;;9;58
30343;BME280;17145;49.902;8.680;'2023-04-25 04:54:09';99390;;;8;58
30343;BME280;17145;49.902;8.680;'2023-04-25 04:56:37';99390;;;8;58
30343;BME280;17145;49.902;8.680;'2023-04-25 04:59:04';99390;;;8;58
30343;BME280;17145;49.902;8.680;'2023-04-25 05:01:32';99390;;;8;58
30343;BME280;17145;49.902;8.680;'2023-04-25 05:03:59';99400;;;8;57
30343;BME280;17145;49.902;8.680;'2023-04-25 05:06:26';99400;;;9;57
30343;BME280;17145;49.902;8.680;'2023-04-25 05:08:54';99400;;;9;58
30343;BME280;17145;49.902;8.680;'2023-04-25 05:11:21';99400;;;9;57
30343;BME280;17145;49.902;8.680;'2023-04-25 05:13:49';99400;;;8;58
30343;BME280;17145;49.902;8.680;'2023-04-25 05:16:16';99400;;;9;58
30343;BME280;17145;49.902;8.680;'2023-04-25 05:18:43';99400;;;8;58
30343;BME280;17145;49.902;8.680;'2023-04-25 05:21:11';99400;;;9;58
30343;BME280;17145;49.902;8.680;'2023-04-25 05:23:38';99400;;;8;58
30343;BME280;17145;49.902;8.680;'2023-04-25 05:26:06';99400;;;8;58
30343;BME280;17145;49.902;8.680;'2023-04-25 05:28:33';99400;;;8;57
30343;BME280;17145;49.902;8.680;'2023-04-25 05:31:00';99400;;;8;57
30343;BME280;17145;49.902;8.680;'2023-04-25 05:33:28';99400;;;8;57
30343;BME280;17145;49.902;8.680;'2023-04-25 05:35:55';99410;;;8;57
30343;BME280;17145;49.902;8.680;'2023-04-25 05:38:22';99400;;;8;57
30343;BME280;17145;49.902;8.680;'2023-04-25 05:40:50';99400;;;8;57
30343;BME280;17145;49.902;8.680;'2023-04-25 05:43:17';99400;;;9;57
30343;BME280;17145;49.902;8.680;'2023-04-25 05:45:45';99400;;;8;58
30343;BME280;17145;49.902;8.680;'2023-04-25 05:48:12';99400;;;8;58
30343;BME280;17145;49.902;8.680;'2023-04-25 05:50:40';99410;;;9;58
30343;BME280;17145;49.902;8.680;'2023-04-25 05:53:07';99410;;;9;58
30343;BME280;17145;49.902;8.680;'2023-04-25 05:55:34';99420;;;8;58
30343;BME280;17145;49.902;8.680;'2023-04-25 05:58:01';99420;;;8;58
30343;BME280;17145;49.902;8.680;'2023-04-25 06:00:29';99420;;;9;58
30343;BME280;17145;49.902;8.680;'2023-04-25 06:02:56';99420;;;8;57
30343;BME280;17145;49.902;8.680;'2023-04-25 06:05:24';99420;;;8;58
30343;BME280;17145;49.902;8.680;'2023-04-25 06:07:51';99420;;;9;57
30343;BME280;17145;49.902;8.680;'2023-04-25 06:10:18';99430;;;8;57
30343;BME280;17145;49.902;8.680;'2023-04-25 06:12:46';99440;;;8;57
30343;BME280;17145;49.902;8.680;'2023-04-25 06:15:13';99440;;;8;57
30343;BME280;17145;49.902;8.680;'2023-04-25 06:17:41';99440;;;8;56
30343;BME280;17145;49.902;8.680;'2023-04-25 06:20:09';99440;;;8;56
30343;BME280;17145;49.902;8.680;'2023-04-25 06:22:36';99440;;;8;56
30343;BME280;17145;49.902;8.680;'2023-04-25 06:25:05';99450;;;8;56
30343;BME280;17145;49.902;8.680;'2023-04-25 06:27:33';99450;;;8;56
30343;BME280;17145;49.902;8.680;'2023-04-25 06:30:00';99450;;;8;56
30343;BME280;17145;49.902;8.680;'2023-04-25 06:32:27';99440;;;8;56
30343;BME280;17145;49.902;8.680;'2023-04-25 06:34:55';99440;;;8;56
30343;BME280;17145;49.902;8.680;'2023-04-25 06:37:22';99440;;;8;56
30343;BME280;17145;49.902;8.680;'2023-04-25 06:39:50';99450;;;8;56
30343;BME280;17145;49.902;8.680;'2023-04-25 06:42:17';99450;;;8;56
30343;BME280;17145;49.902;8.680;'2023-04-25 06:44:45';99450;;;9;56
30343;BME280;17145;49.902;8.680;'2023-04-25 06:47:12';99460;;;8;57
30343;BME280;17145;49.902;8.680;'2023-04-25 06:49:40';99460;;;8;56
30343;BME280;17145;49.902;8.680;'2023-04-25 06:52:07';99460;;;8;57
30343;BME280;17145;49.902;8.680;'2023-04-25 06:54:35';99470;;;8;56
30343;BME280;17145;49.902;8.680;'2023-04-25 06:57:02';99480;;;8;55
30343;BME280;17145;49.902;8.680;'2023-04-25 06:59:29';99480;;;8;55
30343;BME280;17145;49.902;8.680;'2023-04-25 07:01:57';99490;;;8;55
30343;BME280;17145;49.902;8.680;'2023-04-25 07:04:24';99490;;;8;54
30343;BME280;17145;49.902;8.680;'2023-04-25 07:06:52';99490;;;7;54
30343;BME280;17145;49.902;8.680;'2023-04-25 07:09:19';99480;;;8;54
30343;BME280;17145;49.902;8.680;'2023-04-25 07:11:47';99480;;;8;53
30343;BME280;17145;49.902;8.680;'2023-04-25 07:14:14';99490;;;8;54
30343;BME280;17145;49.902;8.680;'2023-04-25 07:16:43';99500;;;8;54
30343;BME280;17145;49.902;8.680;'2023-04-25 07:19:10';99500;;;8;53
30343;BME280;17145;49.902;8.680;'2023-04-25 07:21:37';99500;;;8;53
30343;BME280;17145;49.902;8.680;'2023-04-25 07:24:05';99500;;;8;52
30343;BME280;17145;49.902;8.680;'2023-04-25 07:26:32';99500;;;8;53
30343;BME280;17145;49.902;8.680;'2023-04-25 07:29:00';99500;;;7;53
30343;BME280;17145;49.902;8.680;'2023-04-25 07:31:27';99500;;;7;53
30343;BME280;17145;49.902;8.680;'2023-04-25 07:33:54';99510;;;7;53
30343;BME280;17145;49.902;8.680;'2023-04-25 07:36:22';99510;;;7;53
30343;BME280;17145;49.902;8.680;'2023-04-25 07:38:49';99510;;;7;54
30343;BME280;17145;49.902;8.680;'2023-04-25 07:41:17';99520;;;8;54
30343;BME280;17145;49.902;8.680;'2023-04-25 07:43:44';99520;;;7;54
30343;BME280;17145;49.902;8.680;'2023-04-25 07:46:11';99520;;;8;53
30343;BME280;17145;49.902;8.680;'2023-04-25 07:48:39';99520;;;8;53
30343;BME280;17145;49.902;8.680;'2023-04-25 07:51:06';99530;;;8;52
30343;BME280;17145;49.902;8.680;'2023-04-25 07:53:34';99530;;;7;52
30343;BME280;17145;49.902;8.680;'2023-04-25 07:56:01';99530;;;8;53
30343;BME280;17145;49.902;8.680;'2023-04-25 07:58:29';99530;;;8;53
30343;BME280;17145;49.902;8.680;'2023-04-25 08:00:56';99530;;;8;52
30343;BME280;17145;49.902;8.680;'2023-04-25 08:03:24';99530;;;8;52
30343;BME280;17145;49.902;8.680;'2023-04-25 08:05:51';99530;;;8;51
30343;BME280;17145;49.902;8.680;'2023-04-25 08:08:18';99530;;;8;52
30343;BME280;17145;49.902;8.680;'2023-04-25 08:10:46';99540;;;8;52
30343;BME280;17145;49.902;8.680;'2023-04-25 08:13:13';99540;;;8;52
30343;BME280;17145;49.902;8.680;'2023-04-25 08:15:41';99540;;;8;53
30343;BME280;17145;49.902;8.680;'2023-04-25 08:18:08';99540;;;8;53
30343;BME280;17145;49.902;8.680;'2023-04-25 08:20:36';99540;;;8;52
30343;BME280;17145;49.902;8.680;'2023-04-25 08:23:03';99540;;;8;52
30343;BME280;17145;49.902;8.680;'2023-04-25 08:25:31';99540;;;8;51
30343;BME280;17145;49.902;8.680;'2023-04-25 08:27:58';99540;;;8;52
30343;BME280;17145;49.902;8.680;'2023-04-25 08:30:26';99530;;;8;52
30343;BME280;17145;49.902;8.680;'2023-04-25 08:32:53';99530;;;9;51
30343;BME280;17145;49.902;8.680;'2023-04-25 08:35:21';99540;;;9;50
30343;BME280;17145;49.902;8.680;'2023-04-25 08:37:48';99530;;;9;50
30343;BME280;17145;49.902;8.680;'2023-04-25 08:40:15';99520;;;9;49
30343;BME280;17145;49.902;8.680;'2023-04-25 08:42:43';99520;;;9;49
30343;BME280;17145;49.902;8.680;'2023-04-25 08:45:10';99520;;;8;49
30343;BME280;17145;49.902;8.680;'2023-04-25 08:47:38';99530;;;9;49
30343;BME280;17145;49.902;8.680;'2023-04-25 08:50:06';99530;;;9;49
30343;BME280;17145;49.902;8.680;'2023-04-25 08:52:34';99530;;;9;49
30343;BME280;17145;49.902;8.680;'2023-04-25 08:55:01';99530;;;9;48
30343;BME280;17145;49.902;8.680;'2023-04-25 08:57:28';99540;;;9;49
30343;BME280;17145;49.902;8.680;'2023-04-25 08:59:56';99540;;;9;49
30343;BME280;17145;49.902;8.680;'2023-04-25 09:02:23';99530;;;9;47
30343;BME280;17145;49.902;8.680;'2023-04-25 09:04:50';99530;;;9;47
30343;BME280;17145;49.902;8.680;'2023-04-25 09:07:18';99530;;;9;47
30343;BME280;17145;49.902;8.680;'2023-04-25 09:09:45';99540;;;9;47
30343;BME280;17145;49.902;8.680;'2023-04-25 09:12:13';99540;;;9;47
30343;BME280;17145;49.902;8.680;'2023-04-25 09:14:40';99540;;;9;46
30343;BME280;17145;49.902;8.680;'2023-04-25 09:17:07';99540;;;9;45
30343;BME280;17145;49.902;8.680;'2023-04-25 09:19:35';99540;;;9;46
30343;BME280;17145;49.902;8.680;'2023-04-25 09:22:02';99540;;;9;46
30343;BME280;17145;49.902;8.680;'2023-04-25 09:24:29';99540;;;9;47
30343;BME280;17145;49.902;8.680;'2023-04-25 09:26:57';99550;;;9;47
30343;BME280;17145;49.902;8.680;'2023-04-25 09:29:24';99550;;;9;46
30343;BME280;17145;49.902;8.680;'2023-04-25 09:31:52';99550;;;9;47
30343;BME280;17145;49.902;8.680;'2023-04-25 09:34:19';99550;;;9;47
30343;BME280;17145;49.902;8.680;'2023-04-25 09:36:47';99550;;;9;46
30343;BME280;17145;49.902;8.680;'2023-04-25 09:39:14';99550;;;9;45
30343;BME280;17145;49.902;8.680;'2023-04-25 09:41:42';99550;;;9;46
30343;BME280;17145;49.902;8.680;'2023-04-25 09:44:09';99560;;;9;45
30343;BME280;17145;49.902;8.680;'2023-04-25 09:46:36';99560;;;9;45
30343;BME280;17145;49.902;8.680;'2023-04-25 09:49:04';99560;;;9;45
30343;BME280;17145;49.902;8.680;'2023-04-25 09:51:31';99570;;;9;45
30343;BME280;17145;49.902;8.680;'2023-04-25 09:53:59';99570;;;9;44
30343;BME280;17145;49.902;8.680;'2023-04-25 09:56:26';99580;;;9;45
30343;BME280;17145;49.902;8.680;'2023-04-25 09:58:54';99580;;;9;45
30343;BME280;17145;49.902;8.680;'2023-04-25 10:01:21';99580;;;9;44
30343;BME280;17145;49.902;8.680;'2023-04-25 10:03:48';99580;;;9;44
30343;BME280;17145;49.902;8.680;'2023-04-25 10:06:16';99590;;;9;45
30343;BME280;17145;49.902;8.680;'2023-04-25 10:08:43';99590;;;9;45
30343;BME280;17145;49.902;8.680;'2023-04-25 10:11:11';99590;;;9;45
30343;BME280;17145;49.902;8.680;'2023-04-25 10:13:39';99590;;;9;44
30343;BME280;17145;49.902;8.680;'2023-04-25 10:16:06';99600;;;9;45
30343;BME280;17145;49.902;8.680;'2023-04-25 10:18:33';99590;;;9;43
30343;BME280;17145;49.902;8.680;'2023-04-25 10:21:01';99600;;;9;43
30343;BME280;17145;49.902;8.680;'2023-04-25 10:23:28';99600;;;9;44
30343;BME280;17145;49.902;8.680;'2023-04-25 10:25:56';99610;;;9;43
30343;BME280;17145;49.902;8.680;'2023-04-25 10:28:23';99610;;;9;44
30343;BME280;17145;49.902;8.680;'2023-04-25 10:30:50';99610;;;9;43
30343;BME280;17145;49.902;8.680;'2023-04-25 10:33:18';99610;;;10;44
30343;BME280;17145;49.902;8.680;'2023-04-25 10:35:46';99610;;;10;44
30343;BME280;17145;49.902;8.680;'2023-04-25 10:38:13';99610;;;10;43
30343;BME280;17145;49.902;8.680;'2023-04-25 10:40:43';99610;;;10;42
30343;BME280;17145;49.902;8.680;'2023-04-25 10:43:13';99610;;;10;42
30343;BME280;17145;49.902;8.680;'2023-04-25 10:45:42';99620;;;10;42
30343;BME280;17145;49.902;8.680;'2023-04-25 10:48:12';99620;;;10;42
30343;BME280;17145;49.902;8.680;'2023-04-25 10:50:44';99620;;;10;42
30343;BME280;17145;49.902;8.680;'2023-04-25 10:53:14';99620;;;10;40
30343;BME280;17145;49.902;8.680;'2023-04-25 10:55:42';99630;;;10;41
30343;BME280;17145;49.902;8.680;'2023-04-25 10:58:11';99630;;;11;41
30343;BME280;17145;49.902;8.680;'2023-04-25 11:00:39';99630;;;10;41
30343;BME280;17145;49.902;8.680;'2023-04-25 11:03:06';99630;;;10;41
30343;BME280;17145;49.902;8.680;'2023-04-25 11:05:34';99640;;;11;41
30343;BME280;17145;49.902;8.680;'2023-04-25 11:08:02';99640;;;10;40
30343;BME280;17145;49.902;8.680;'2023-04-25 11:10:29';99640;;;10;40
30343;BME280;17145;49.902;8.680;'2023-04-25 11:13:02';99640;;;10;40
30343;BME280;17145;49.902;8.680;'2023-04-25 11:15:30';99650;;;10;39
30343;BME280;17145;49.902;8.680;'2023-04-25 11:17:58';99650;;;10;39
30343;BME280;17145;49.902;8.680;'2023-04-25 11:20:25';99640;;;10;39
30343;BME280;17145;49.902;8.680;'2023-04-25 11:23:01';99640;;;11;39
30343;BME280;17145;49.902;8.680;'2023-04-25 11:25:34';99650;;;11;38
30343;BME280;17145;49.902;8.680;'2023-04-25 11:28:05';99650;;;10;38
30343;BME280;17145;49.902;8.680;'2023-04-25 11:30:34';99650;;;10;38
30343;BME280;17145;49.902;8.680;'2023-04-25 11:33:05';99650;;;11;37
30343;BME280;17145;49.902;8.680;'2023-04-25 11:35:36';99660;;;10;38
30343;BME280;17145;49.902;8.680;'2023-04-25 11:38:08';99660;;;10;39
30343;BME280;17145;49.902;8.680;'2023-04-25 11:40:39';99670;;;10;38
30343;BME280;17145;49.902;8.680;'2023-04-25 11:43:09';99680;;;10;38
30343;BME280;17145;49.902;8.680;'2023-04-25 11:45:41';99670;;;10;39
30343;BME280;17145;49.902;8.680;'2023-04-25 11:48:09';99680;;;10;40
30343;BME280;17145;49.902;8.680;'2023-04-25 11:50:36';99680;;;10;39
30343;BME280;17145;49.902;8.680;'2023-04-25 11:53:04';99690;;;10;39
30343;BME280;17145;49.902;8.680;'2023-04-25 11:55:34';99690;;;10;38
30343;BME280;17145;49.902;8.680;'2023-04-25 11:58:05';99690;;;11;38
30343;BME280;17145;49.902;8.680;'2023-04-25 12:00:33';99690;;;10;38
30343;BME280;17145;49.902;8.680;'2023-04-25 12:03:02';99700;;;10;38
30343;BME280;17145;49.902;8.680;'2023-04-25 12:05:32';99700;;;10;38
30343;BME280;17145;49.902;8.680;'2023-04-25 12:08:03';99700;;;10;38
30343;BME280;17145;49.902;8.680;'2023-04-25 12:10:32';99710;;;10;38
30343;BME280;17145;49.902;8.680;'2023-04-25 12:13:00';99710;;;10;38
30343;BME280;17145;49.902;8.680;'2023-04-25 12:15:28';99720;;;10;38
30343;BME280;17145;49.902;8.680;'2023-04-25 12:17:56';99720;;;10;37
30343;BME280;17145;49.902;8.680;'2023-04-25 12:20:24';99720;;;10;38
30343;BME280;17145;49.902;8.680;'2023-04-25 12:22:55';99720;;;10;38
30343;BME280;17145;49.902;8.680;'2023-04-25 12:25:23';99720;;;10;38
30343;BME280;17145;49.902;8.680;'2023-04-25 12:27:52';99720;;;10;39
30343;BME280;17145;49.902;8.680;'2023-04-25 12:30:19';99720;;;10;38
30343;BME280;17145;49.902;8.680;'2023-04-25 12:32:47';99720;;;10;38
30343;BME280;17145;49.902;8.680;'2023-04-25 12:35:17';99720;;;10;37
30343;BME280;17145;49.902;8.680;'2023-04-25 12:37:57';99720;;;10;37
30343;BME280;17145;49.902;8.680;'2023-04-25 12:40:25';99720;;;10;37
30343;BME280;17145;49.902;8.680;'2023-04-25 12:42:55';99720;;;10;38
30343;BME280;17145;49.902;8.680;'2023-04-25 12:45:23';99720;;;10;38
30343;BME280;17145;49.902;8.680;'2023-04-25 12:47:50';99720;;;10;37
30343;BME280;17145;49.902;8.680;'2023-04-25 12:50:17';99730;;;10;37
30343;BME280;17145;49.902;8.680;'2023-04-25 12:52:45';99730;;;10;37
30343;BME280;17145;49.902;8.680;'2023-04-25 12:55:12';99730;;;10;38
30343;BME280;17145;49.902;8.680;'2023-04-25 12:57:41';99720;;;11;38
30343;BME280;17145;49.902;8.680;'2023-04-25 13:00:12';99730;;;10;38
30343;BME280;17145;49.902;8.680;'2023-04-25 13:02:45';99730;;;10;37
30343;BME280;17145;49.902;8.680;'2023-04-25 13:05:22';99740;;;11;38
30343;BME280;17145;49.902;8.680;'2023-04-25 13:07:51';99730;;;11;38
30343;BME280;17145;49.902;8.680;'2023-04-25 13:10:19';99730;;;11;37
30343;BME280;17145;49.902;8.680;'2023-04-25 13:12:46';99730;;;11;38
30343;BME280;17145;49.902;8.680;'2023-04-25 13:15:14';99730;;;11;37
30343;BME280;17145;49.902;8.680;'2023-04-25 13:17:41';99730;;;11;37
30343;BME280;17145;49.902;8.680;'2023-04-25 13:20:09';99730;;;11;35
30343;BME280;17145;49.902;8.680;'2023-04-25 13:22:37';99730;;;11;35
30343;BME280;17145;49.902;8.680;'2023-04-25 13:25:06';99730;;;11;35
30343;BME280;17145;49.902;8.680;'2023-04-25 13:27:36';99730;;;11;35
30343;BME280;17145;49.902;8.680;'2023-04-25 13:30:13';99730;;;11;35
30343;BME280;17145;49.902;8.680;'2023-04-25 13:32:41';99730;;;12;35
30343;BME280;17145;49.902;8.680;'2023-04-25 13:35:08';99730;;;11;35
30343;BME280;17145;49.902;8.680;'2023-04-25 13:37:36';99730;;;12;36
30343;BME280;17145;49.902;8.680;'2023-04-25 13:40:06';99740;;;11;35
30343;BME280;17145;49.902;8.680;'2023-04-25 13:42:33';99750;;;11;36
30343;BME280;17145;49.902;8.680;'2023-04-25 13:45:01';99740;;;11;36
30343;BME280;17145;49.902;8.680;'2023-04-25 13:47:30';99750;;;11;37
30343;BME280;17145;49.902;8.680;'2023-04-25 13:49:58';99750;;;11;37
30343;BME280;17145;49.902;8.680;'2023-04-25 13:52:36';99750;;;11;37
30343;BME280;17145;49.902;8.680;'2023-04-25 13:55:05';99750;;;11;36
30343;BME280;17145;49.902;8.680;'2023-04-25 13:57:33';99760;;;11;36
30343;BME280;17145;49.902;8.680;'2023-04-25 14:00:10';99760;;;11;36
30343;BME280;17145;49.902;8.680;'2023-04-25 14:02:39';99760;;;11;36
30343;BME280;17145;49.902;8.680;'2023-04-25 14:05:07';99760;;;11;36
30343;BME280;17145;49.902;8.680;'2023-04-25 14:07:35';99760;;;11;36
30343;BME280;17145;49.902;8.680;'2023-04-25 14:10:06';99760;;;11;36
30343;BME280;17145;49.902;8.680;'2023-04-25 14:12:34';99770;;;11;36
30343;BME280;17145;49.902;8.680;'2023-04-25 14:15:12';99770;;;11;36
30343;BME280;17145;49.902;8.680;'2023-04-25 14:17:40';99780;;;11;36
30343;BME280;17145;49.902;8.680;'2023-04-25 14:20:09';99770;;;11;36
30343;BME280;17145;49.902;8.680;'2023-04-25 14:22:37';99770;;;10;36
30343;BME280;17145;49.902;8.680;'2023-04-25 14:25:05';99770;;;10;37
30343;BME280;17145;49.902;8.680;'2023-04-25 14:27:33';99770;;;10;37
30343;BME280;17145;49.902;8.680;'2023-04-25 14:30:00';99780;;;11;36
30343;BME280;17145;49.902;8.680;'2023-04-25 14:32:28';99780;;;11;36
30343;BME280;17145;49.902;8.680;'2023-04-25 14:34:55';99780;;;11;36
30343;BME280;17145;49.902;8.680;'2023-04-25 14:37:23';99780;;;11;36
30343;BME280;17145;49.902;8.680;'2023-04-25 14:39:50';99780;;;11;36
30343;BME280;17145;49.902;8.680;'2023-04-25 14:42:18';99780;;;11;36
30343;BME280;17145;49.902;8.680;'2023-04-25 14:44:45';99780;;;11;36
30343;BME280;17145;49.902;8.680;'2023-04-25 14:47:12';99780;;;11;36
30343;BME280;17145;49.902;8.680;'2023-04-25 14:49:40';99780;;;12;36
30343;BME280;17145;49.902;8.680;'2023-04-25 14:52:07';99780;;;12;34
30343;BME280;17145;49.902;8.680;'2023-04-25 14:54:35';99780;;;12;35
30343;BME280;17145;49.902;8.680;'2023-04-25 14:57:02';99780;;;12;34
30343;BME280;17145;49.902;8.680;'2023-04-25 14:59:30';99790;;;12;33
30343;BME280;17145;49.902;8.680;'2023-04-25 15:01:57';99790;;;13;32
30343;BME280;17145;49.902;8.680;'2023-04-25 15:04:24';99790;;;13;32
30343;BME280;17145;49.902;8.680;'2023-04-25 15:06:52';99790;;;13;32
30343;BME280;17145;49.902;8.680;'2023-04-25 15:09:19';99790;;;12;32
30343;BME280;17145;49.902;8.680;'2023-04-25 15:11:46';99790;;;13;32
30343;BME280;17145;49.902;8.680;'2023-04-25 15:14:14';99790;;;13;32
30343;BME280;17145;49.902;8.680;'2023-04-25 15:16:41';99790;;;12;32
30343;BME280;17145;49.902;8.680;'2023-04-25 15:19:09';99790;;;12;32
30343;BME280;17145;49.902;8.680;'2023-04-25 15:21:36';99790;;;12;32
30343;BME280;17145;49.902;8.680;'2023-04-25 15:24:04';99790;;;12;32
30343;BME280;17145;49.902;8.680;'2023-04-25 15:26:32';99800;;;12;32
30343;BME280;17145;49.902;8.680;'2023-04-25 15:28:59';99800;;;11;33
30343;BME280;17145;49.902;8.680;'2023-04-25 15:31:26';99800;;;11;33
30343;BME280;17145;49.902;8.680;'2023-04-25 15:33:54';99800;;;11;34
30343;BME280;17145;49.902;8.680;'2023-04-25 15:36:21';99800;;;11;34
30343;BME280;17145;49.902;8.680;'2023-04-25 15:38:49';99800;;;11;33
30343;BME280;17145;49.902;8.680;'2023-04-25 15:41:16';99800;;;11;34
30343;BME280;17145;49.902;8.680;'2023-04-25 15:43:44';99800;;;11;34
30343;BME280;17145;49.902;8.680;'2023-04-25 15:46:11';99810;;;11;34
30343;BME280;17145;49.902;8.680;'2023-04-25 15:48:39';99810;;;11;33
30343;BME280;17145;49.902;8.680;'2023-04-25 15:51:06';99810;;;11;32
30343;BME280;17145;49.902;8.680;'2023-04-25 15:53:33';99820;;;11;32
30343;BME280;17145;49.902;8.680;'2023-04-25 15:56:01';99820;;;11;32
30343;BME280;17145;49.902;8.680;'2023-04-25 15:58:28';99820;;;11;32
30343;BME280;17145;49.902;8.680;'2023-04-25 16:00:56';99820;;;11;32
30343;BME280;17145;49.902;8.680;'2023-04-25 16:03:23';99820;;;11;32
30343;BME280;17145;49.902;8.680;'2023-04-25 16:05:50';99820;;;12;33
30343;BME280;17145;49.902;8.680;'2023-04-25 16:08:18';99820;;;12;32
30343;BME280;17145;49.902;8.680;'2023-04-25 16:10:45';99820;;;12;32
30343;BME280;17145;49.902;8.680;'2023-04-25 16:13:12';99820;;;12;31
30343;BME280;17145;49.902;8.680;'2023-04-25 16:15:40';99820;;;12;31
30343;BME280;17145;49.902;8.680;'2023-04-25 16:18:07';99820;;;12;30
30343;BME280;17145;49.902;8.680;'2023-04-25 16:20:35';99820;;;12;30
30343;BME280;17145;49.902;8.680;'2023-04-25 16:23:02';99820;;;13;31
30343;BME280;17145;49.902;8.680;'2023-04-25 16:25:30';99820;;;12;30
30343;BME280;17145;49.902;8.680;'2023-04-25 16:27:57';99830;;;13;30
30343;BME280;17145;49.902;8.680;'2023-04-25 16:30:25';99820;;;13;30